Time;durP1;ratioP1;P1;durP2;ratioP2;P2;SDS_P1;SDS_P2;PMS_P1;PMS_P2;Temp;Humidity;BMP_temperature;BMP_pressure;BME280_temperature;BME280_humidity;BME280_pressure;Samples;Min_cycle;Max_cycle;Signal;HPM_P1;HPM_P2
2021/08/27 00:00:39;;;;;;;13.18;4.90;;;13.00;99.90;;;;;;5111436;28;20054;-71
2021/08/27 00:03:06;;;;;;;6.50;2.70;;;13.10;99.90;;;;;;5111755;28;20108;-71
2021/08/27 00:05:33;;;;;;;10.82;3.30;;;13.10;99.90;;;;;;5111603;28;20495;-71
2021/08/27 00:08:00;;;;;;;8.80;3.10;;;13.20;99.90;;;;;;5110884;28;20047;-71
2021/08/27 00:10:29;;;;;;;8.23;3.22;;;13.10;99.90;;;;;;5111527;28;20112;-71
2021/08/27 00:12:56;;;;;;;6.97;3.70;;;13.10;99.90;;;;;;5111249;28;20055;-71
2021/08/27 00:15:23;;;;;;;6.72;3.00;;;13.10;99.90;;;;;;5111252;28;20047;-71
2021/08/27 00:17:50;;;;;;;7.03;3.08;;;13.10;99.90;;;;;;5110905;28;20048;-71
2021/08/27 00:20:17;;;;;;;7.38;3.13;;;13.10;99.90;;;;;;5110822;28;20048;-71
2021/08/27 00:22:44;;;;;;;6.65;3.42;;;13.00;99.90;;;;;;5111496;28;20124;-71
2021/08/27 00:25:12;;;;;;;8.48;3.08;;;13.10;99.90;;;;;;5111090;28;20089;-71
2021/08/27 00:27:40;;;;;;;8.63;4.00;;;13.10;99.90;;;;;;5110636;28;20396;-71
2021/08/27 00:30:08;;;;;;;9.80;3.28;;;13.10;99.90;;;;;;5111074;28;20044;-71
2021/08/27 00:32:35;;;;;;;9.82;3.17;;;13.10;99.90;;;;;;5111119;28;20055;-71
2021/08/27 00:35:05;;;;;;;12.38;4.03;;;13.20;99.90;;;;;;5111239;28;20450;-71
2021/08/27 00:37:32;;;;;;;9.45;4.55;;;13.10;99.90;;;;;;5110500;28;20151;-71
2021/08/27 00:39:59;;;;;;;8.50;3.33;;;13.20;99.90;;;;;;5111014;28;20594;-71
2021/08/27 00:42:27;;;;;;;8.23;3.55;;;13.20;99.90;;;;;;5110883;28;20502;-71
2021/08/27 00:44:56;;;;;;;7.80;3.22;;;13.30;99.90;;;;;;5110820;28;20583;-69
2021/08/27 00:47:23;;;;;;;8.30;3.45;;;13.30;99.90;;;;;;5110759;28;20047;-68
2021/08/27 00:49:50;;;;;;;7.38;3.55;;;13.20;99.90;;;;;;5110634;28;20047;-68
2021/08/27 00:52:17;;;;;;;6.32;3.10;;;13.20;99.90;;;;;;5110679;28;20392;-68
2021/08/27 00:54:49;;;;;;;7.80;3.55;;;13.20;99.90;;;;;;5110842;28;20163;-68
2021/08/27 00:57:16;;;;;;;6.63;2.90;;;13.10;99.90;;;;;;5110824;28;20135;-68
2021/08/27 00:59:43;;;;;;;16.50;5.05;;;13.10;99.90;;;;;;5110089;28;20043;-68
2021/08/27 01:02:12;;;;;;;7.45;3.17;;;13.10;99.90;;;;;;5117296;28;20093;-68
2021/08/27 01:04:40;;;;;;;5.78;3.15;;;13.20;99.90;;;;;;5117806;28;20043;-69
2021/08/27 01:07:11;;;;;;;10.95;4.07;;;13.20;99.90;;;;;;5118281;28;20043;-68
2021/08/27 01:09:44;;;;;;;9.32;3.75;;;13.20;99.90;;;;;;5117402;28;20051;-68
2021/08/27 01:12:16;;;;;;;7.13;3.42;;;13.20;99.90;;;;;;5117488;28;20044;-69
2021/08/27 01:14:53;;;;;;;7.53;3.40;;;13.20;99.90;;;;;;5117333;28;20110;-68
2021/08/27 01:17:28;;;;;;;6.53;3.47;;;13.20;99.90;;;;;;5117362;28;20495;-68
2021/08/27 01:20:14;;;;;;;6.75;3.63;;;13.20;99.90;;;;;;5117550;28;20132;-69
2021/08/27 01:23:14;;;;;;;11.55;3.35;;;13.20;99.90;;;;;;5117351;28;20105;-69
2021/08/27 01:25:45;;;;;;;7.97;3.50;;;13.30;99.90;;;;;;5113871;28;20055;-68
2021/08/27 01:28:14;;;;;;;9.20;3.10;;;13.20;99.90;;;;;;5117081;28;20047;-69
2021/08/27 01:30:46;;;;;;;8.93;3.63;;;13.20;99.90;;;;;;5117532;28;20051;-69
2021/08/27 01:33:17;;;;;;;7.90;3.42;;;13.20;99.90;;;;;;5117460;28;20108;-69
2021/08/27 01:35:48;;;;;;;9.20;3.25;;;13.10;99.90;;;;;;5117456;28;20047;-69
2021/08/27 01:38:18;;;;;;;11.68;3.42;;;13.10;99.90;;;;;;5117081;28;20087;-69
2021/08/27 01:40:53;;;;;;;10.45;3.50;;;13.20;99.90;;;;;;5117145;28;20047;-69
2021/08/27 01:43:23;;;;;;;6.78;3.42;;;13.20;99.90;;;;;;5117326;28;20526;-69
2021/08/27 01:45:54;;;;;;;6.68;3.25;;;13.20;99.90;;;;;;5117386;28;20092;-69
2021/08/27 01:48:22;;;;;;;7.38;3.38;;;13.20;99.90;;;;;;5116534;28;20096;-69
2021/08/27 01:50:54;;;;;;;8.15;3.22;;;13.10;99.90;;;;;;5117367;28;20090;-69
2021/08/27 01:53:22;;;;;;;7.45;3.28;;;13.10;99.90;;;;;;5117182;28;20058;-69
2021/08/27 01:55:50;;;;;;;10.00;3.60;;;13.10;99.90;;;;;;5117068;28;20048;-69
2021/08/27 01:58:17;;;;;;;9.93;3.60;;;13.10;99.90;;;;;;5116813;28;20052;-69
2021/08/27 02:00:45;;;;;;;9.38;3.72;;;13.00;99.90;;;;;;5117290;28;20408;-69
2021/08/27 02:03:12;;;;;;;9.52;3.67;;;13.00;99.90;;;;;;5117024;28;20048;-69
2021/08/27 02:05:41;;;;;;;8.20;3.60;;;13.00;99.90;;;;;;5116989;28;20048;-69
2021/08/27 02:08:10;;;;;;;8.15;3.40;;;12.90;99.90;;;;;;5116568;28;20043;-69
2021/08/27 02:10:37;;;;;;;8.65;3.20;;;12.90;99.90;;;;;;5116858;28;20055;-68
2021/08/27 02:13:04;;;;;;;8.23;3.50;;;13.00;99.90;;;;;;5114028;28;20052;-69
2021/08/27 02:15:32;;;;;;;8.05;3.40;;;12.90;99.90;;;;;;5113476;28;20056;-69
2021/08/27 02:17:59;;;;;;;10.20;3.30;;;12.80;99.90;;;;;;5113454;28;20414;-69
2021/08/27 02:20:27;;;;;;;12.57;3.80;;;12.80;99.90;;;;;;5113725;28;20082;-69
2021/08/27 02:22:56;;;;;;;8.60;3.50;;;12.70;99.90;;;;;;5113753;28;20101;-69
2021/08/27 02:25:29;;;;;;;12.32;3.90;;;12.60;99.90;;;;;;5113553;28;20079;-69
2021/08/27 02:27:57;;;;;;;14.02;3.90;;;12.60;99.90;;;;;;5113139;28;20094;-69
2021/08/27 02:30:26;;;;;;;6.68;3.40;;;12.50;99.90;;;;;;5113418;28;20050;-69
2021/08/27 02:32:55;;;;;;;7.15;3.25;;;12.60;99.90;;;;;;5113530;28;20063;-69
2021/08/27 02:35:24;;;;;;;9.15;3.80;;;12.50;99.90;;;;;;5113569;28;20051;-69
2021/08/27 02:37:51;;;;;;;9.55;3.63;;;12.50;99.90;;;;;;5112757;28;20047;-69
2021/08/27 02:40:18;;;;;;;8.00;3.25;;;12.50;99.90;;;;;;5113213;28;20548;-69
2021/08/27 02:42:47;;;;;;;8.07;3.35;;;12.40;99.90;;;;;;5113244;28;20511;-69
2021/08/27 02:45:14;;;;;;;6.82;3.30;;;12.30;99.90;;;;;;5113083;28;20047;-69
2021/08/27 02:47:42;;;;;;;7.82;3.47;;;12.20;99.90;;;;;;5112508;28;20093;-69
2021/08/27 02:50:12;;;;;;;6.65;2.97;;;12.20;99.90;;;;;;5113308;28;20051;-69
2021/08/27 02:52:46;;;;;;;12.32;3.35;;;12.20;99.90;;;;;;5113351;28;20059;-69
2021/08/27 02:55:16;;;;;;;11.30;3.40;;;12.20;99.90;;;;;;5112882;28;20407;-69
2021/08/27 02:57:53;;;;;;;13.93;4.10;;;12.10;99.90;;;;;;5112371;28;20522;-69
2021/08/27 03:00:21;;;;;;;11.15;3.70;;;12.00;99.90;;;;;;5112961;28;20105;-69
2021/08/27 03:02:48;;;;;;;9.93;3.17;;;12.00;99.90;;;;;;5112959;28;20491;-69
2021/08/27 03:05:20;;;;;;;8.32;2.72;;;12.00;99.90;;;;;;5112895;28;20400;-69
2021/08/27 03:07:53;;;;;;;9.68;3.03;;;12.00;99.90;;;;;;5111913;28;20552;-69
2021/08/27 03:10:25;;;;;;;9.73;3.03;;;12.00;99.90;;;;;;5112991;28;20112;-69
2021/08/27 03:12:58;;;;;;;8.68;3.20;;;12.00;99.90;;;;;;5113136;28;20084;-69
2021/08/27 03:15:30;;;;;;;7.97;3.28;;;12.00;99.90;;;;;;5112600;28;20052;-69
2021/08/27 03:18:04;;;;;;;7.47;3.35;;;12.00;99.90;;;;;;5111912;28;20561;-69
2021/08/27 03:20:46;;;;;;;4.72;2.83;;;11.90;99.90;;;;;;5113209;28;20140;-69
2021/08/27 03:23:15;;;;;;;8.23;3.10;;;11.80;99.90;;;;;;5112721;28;20043;-69
2021/08/27 03:25:45;;;;;;;9.85;3.03;;;11.90;99.90;;;;;;5111843;28;20101;-69
2021/08/27 03:28:17;;;;;;;7.35;3.05;;;11.90;99.90;;;;;;5112767;28;20051;-69
2021/08/27 03:30:48;;;;;;;6.55;2.92;;;12.00;99.90;;;;;;5112941;28;20060;-69
2021/08/27 03:33:17;;;;;;;7.00;3.08;;;11.90;99.90;;;;;;5113259;28;20051;-69
2021/08/27 03:35:44;;;;;;;9.18;3.17;;;11.80;99.90;;;;;;5112262;28;20047;-69
2021/08/27 03:38:13;;;;;;;10.27;3.15;;;11.70;99.90;;;;;;5111327;28;20423;-69
2021/08/27 03:40:41;;;;;;;8.60;3.40;;;11.60;99.90;;;;;;5111895;28;20092;-69
2021/08/27 03:43:08;;;;;;;7.55;2.83;;;11.60;99.90;;;;;;5112261;28;20092;-69
2021/08/27 03:45:38;;;;;;;8.35;3.00;;;11.60;99.90;;;;;;5111932;28;20047;-69
2021/08/27 03:48:05;;;;;;;6.38;3.10;;;11.60;99.90;;;;;;5111561;28;20709;-69
2021/08/27 03:50:33;;;;;;;9.30;3.67;;;11.50;99.90;;;;;;5111778;28;20051;-69
2021/08/27 03:53:00;;;;;;;11.32;3.60;;;11.50;99.90;;;;;;5111723;28;20120;-69
2021/08/27 03:55:29;;;;;;;15.38;3.95;;;11.40;99.90;;;;;;5111766;28;20392;-69
2021/08/27 03:57:58;;;;;;;6.13;3.00;;;11.30;99.90;;;;;;5111455;28;20130;-70
2021/08/27 04:00:26;;;;;;;11.35;4.13;;;11.40;99.90;;;;;;5112741;28;20043;-69
2021/08/27 04:02:55;;;;;;;8.95;3.75;;;11.40;99.90;;;;;;5111946;28;20048;-69
2021/08/27 04:05:23;;;;;;;8.70;3.63;;;11.40;99.90;;;;;;5111858;28;20048;-69
2021/08/27 04:07:51;;;;;;;12.00;3.75;;;11.40;99.90;;;;;;5110709;28;20047;-69
2021/08/27 04:10:20;;;;;;;11.10;3.65;;;11.50;99.90;;;;;;5111153;28;20104;-69
2021/08/27 04:12:47;;;;;;;9.85;3.88;;;11.40;99.90;;;;;;5111303;28;20047;-69
2021/08/27 04:15:17;;;;;;;10.70;4.30;;;11.40;99.90;;;;;;5111385;28;20047;-69
2021/08/27 04:17:44;;;;;;;7.60;3.85;;;11.40;99.90;;;;;;5110811;28;20115;-69
2021/08/27 04:20:14;;;;;;;13.25;4.38;;;11.40;99.90;;;;;;5111513;28;20184;-69
2021/08/27 04:22:41;;;;;;;7.70;3.35;;;11.50;99.90;;;;;;5110830;28;20571;-69
2021/08/27 04:25:09;;;;;;;10.20;3.30;;;11.60;99.90;;;;;;5111307;28;20498;-69
2021/08/27 04:27:36;;;;;;;8.38;3.25;;;11.80;99.90;;;;;;5110564;28;20049;-69
2021/08/27 04:30:04;;;;;;;9.05;3.38;;;11.80;99.90;;;;;;5111194;28;20048;-69
2021/08/27 04:32:31;;;;;;;8.45;2.85;;;11.80;99.90;;;;;;5111713;28;20109;-69
2021/08/27 04:34:58;;;;;;;11.00;3.00;;;11.70;99.90;;;;;;5110583;28;20051;-69
2021/08/27 04:37:26;;;;;;;7.53;3.33;;;11.70;99.90;;;;;;5111111;28;20055;-69
2021/08/27 04:39:53;;;;;;;9.18;3.17;;;11.70;99.90;;;;;;5111283;28;20108;-69
2021/08/27 04:42:20;;;;;;;8.43;4.07;;;11.70;99.90;;;;;;5111699;28;20105;-69
2021/08/27 04:44:47;;;;;;;8.05;3.30;;;11.70;99.90;;;;;;5289606;22;20059;-71
2021/08/27 04:47:15;;;;;;;8.60;3.67;;;11.60;99.90;;;;;;5110056;28;20047;-69
2021/08/27 04:49:42;;;;;;;9.18;3.00;;;11.70;99.90;;;;;;5109476;28;20498;-75
2021/08/27 04:52:09;;;;;;;4.88;2.90;;;11.70;99.90;;;;;;5110039;28;20108;-70
2021/08/27 04:54:37;;;;;;;8.52;2.45;;;11.70;99.90;;;;;;5109606;28;20051;-69
2021/08/27 04:57:04;;;;;;;8.50;2.90;;;11.80;99.90;;;;;;5109976;28;20474;-69
2021/08/27 04:59:32;;;;;;;7.60;2.80;;;11.80;99.90;;;;;;5109441;28;20136;-70
2021/08/27 05:02:00;;;;;;;7.00;2.60;;;11.90;99.90;;;;;;5109739;28;20096;-72
2021/08/27 05:04:27;;;;;;;7.93;2.55;;;11.80;99.90;;;;;;5109924;28;20047;-73
2021/08/27 05:06:55;;;;;;;6.60;2.67;;;11.80;99.90;;;;;;5109554;28;20426;-74
2021/08/27 05:09:22;;;;;;;8.40;2.90;;;12.00;99.90;;;;;;5109020;28;20067;-69
2021/08/27 05:11:50;;;;;;;7.10;3.05;;;12.00;99.90;;;;;;5109803;28;20100;-69
2021/08/27 05:14:17;;;;;;;7.20;2.65;;;11.90;99.90;;;;;;5109826;28;20139;-70
2021/08/27 05:16:44;;;;;;;12.25;3.20;;;12.00;99.90;;;;;;5109611;28;20499;-70
2021/08/27 05:19:12;;;;;;;5.70;2.60;;;12.00;99.90;;;;;;5109069;28;20083;-69
2021/08/27 05:21:38;;;;;;;7.97;2.88;;;12.00;99.90;;;;;;5109055;28;20552;-70
2021/08/27 05:24:06;;;;;;;7.00;2.58;;;12.00;99.90;;;;;;5109731;28;20384;-70
2021/08/27 05:26:34;;;;;;;9.68;2.95;;;12.00;99.90;;;;;;5109786;28;20048;-69
2021/08/27 05:29:04;;;;;;;6.72;2.67;;;12.00;99.90;;;;;;5108786;28;20044;-71
2021/08/27 05:31:31;;;;;;;7.97;3.05;;;12.00;99.90;;;;;;5109541;28;20052;-74
2021/08/27 05:33:59;;;;;;;11.95;3.33;;;12.00;99.90;;;;;;5109401;28;20080;-69
2021/08/27 05:36:27;;;;;;;8.38;3.17;;;12.00;99.90;;;;;;5109354;28;20388;-69
2021/08/27 05:38:53;;;;;;;9.65;2.63;;;12.10;99.90;;;;;;5108836;28;20052;-72
2021/08/27 05:41:21;;;;;;;10.38;3.58;;;12.10;99.90;;;;;;5109576;28;20136;-70
2021/08/27 05:43:47;;;;;;;7.13;3.15;;;12.10;99.90;;;;;;5109323;28;20052;-69
2021/08/27 05:46:16;;;;;;;7.97;2.83;;;12.20;99.90;;;;;;5109260;28;20055;-70
2021/08/27 05:48:43;;;;;;;6.53;3.10;;;12.30;99.90;;;;;;5111265;28;20112;-69
2021/08/27 05:51:10;;;;;;;9.48;3.00;;;12.30;99.90;;;;;;5113129;28;20055;-69
2021/08/27 05:53:37;;;;;;;7.70;3.10;;;12.30;99.90;;;;;;5113433;28;20096;-70
2021/08/27 05:56:04;;;;;;;9.38;3.58;;;12.30;99.90;;;;;;5113238;28;20052;-69
2021/08/27 05:58:31;;;;;;;7.43;2.85;;;12.40;99.90;;;;;;5112470;28;20537;-70
2021/08/27 06:00:58;;;;;;;7.25;2.72;;;12.40;99.90;;;;;;5112975;28;20074;-69
2021/08/27 06:03:27;;;;;;;5.30;2.60;;;12.50;99.90;;;;;;5112920;28;20083;-73
2021/08/27 06:05:54;;;;;;;9.05;2.97;;;12.60;99.90;;;;;;5113634;28;20052;-71
2021/08/27 06:08:21;;;;;;;8.43;3.28;;;12.60;99.90;;;;;;5114816;28;20078;-69
2021/08/27 06:10:47;;;;;;;6.07;3.22;;;12.60;99.90;;;;;;5114408;28;20051;-75
2021/08/27 06:13:14;;;;;;;7.63;2.95;;;12.60;99.90;;;;;;5115795;28;20083;-70
2021/08/27 06:15:43;;;;;;;8.65;2.95;;;12.60;99.90;;;;;;5115302;28;20112;-69
2021/08/27 06:18:10;;;;;;;7.15;3.20;;;12.60;99.90;;;;;;5114362;28;20083;-75
2021/08/27 06:20:39;;;;;;;7.35;2.92;;;12.60;99.90;;;;;;5113272;28;20127;-70
2021/08/27 06:23:06;;;;;;;8.77;3.28;;;12.70;99.90;;;;;;5112935;28;20043;-70
2021/08/27 06:25:35;;;;;;;9.63;2.90;;;12.70;99.90;;;;;;5112967;28;20051;-72
2021/08/27 06:28:02;;;;;;;8.68;3.00;;;12.90;99.90;;;;;;5113483;28;20411;-70
2021/08/27 06:30:30;;;;;;;5.97;3.10;;;13.00;99.90;;;;;;5113143;28;20055;-69
2021/08/27 06:32:57;;;;;;;6.60;2.90;;;13.00;99.90;;;;;;5112912;28;20054;-69
2021/08/27 06:35:24;;;;;;;8.93;3.33;;;13.00;99.90;;;;;;5112511;28;20047;-75
2021/08/27 06:40:36;;;;;;;5.93;2.80;;;13.40;99.90;;;;;;5112346;28;20059;-73
2021/08/27 06:43:03;;;;;;;10.65;3.15;;;13.40;99.90;;;;;;5112507;28;20087;-70
2021/08/27 06:45:30;;;;;;;7.10;2.65;;;13.40;99.90;;;;;;5112509;28;20043;-73
2021/08/27 06:47:58;;;;;;;5.95;2.65;;;13.30;99.90;;;;;;5111457;28;20051;-70
2021/08/27 06:50:25;;;;;;;9.68;3.47;;;13.20;99.90;;;;;;5112266;28;20052;-75
2021/08/27 06:52:54;;;;;;;8.40;3.33;;;13.30;99.90;;;;;;5112218;28;20459;-70
2021/08/27 06:55:21;;;;;;;10.95;3.22;;;13.30;99.90;;;;;;5111901;28;20273;-69
2021/08/27 06:57:48;;;;;;;6.35;2.88;;;13.40;99.90;;;;;;5111843;28;20457;-70
2021/08/27 07:00:16;;;;;;;11.85;3.25;;;13.50;99.90;;;;;;5111797;28;20499;-69
2021/08/27 07:02:44;;;;;;;7.35;2.85;;;13.50;99.90;;;;;;5111837;28;20044;-70
2021/08/27 07:05:12;;;;;;;11.15;3.65;;;13.60;99.90;;;;;;5112012;28;20134;-70
2021/08/27 07:07:39;;;;;;;6.90;2.40;;;13.70;99.90;;;;;;5111658;28;20048;-70
2021/08/27 07:10:08;;;;;;;6.55;2.70;;;13.90;99.90;;;;;;5111918;28;20047;-70
2021/08/27 07:12:35;;;;;;;9.82;3.20;;;14.00;99.90;;;;;;5111971;28;20052;-70
2021/08/27 07:15:03;;;;;;;6.10;2.60;;;14.00;99.90;;;;;;5111876;28;20566;-70
2021/08/27 07:17:30;;;;;;;4.90;2.40;;;14.10;99.90;;;;;;5111325;28;20048;-69
2021/08/27 07:19:57;;;;;;;8.00;2.60;;;14.10;99.90;;;;;;5111130;28;20104;-73
2021/08/27 07:22:24;;;;;;;8.00;2.83;;;14.00;99.90;;;;;;5111278;28;20491;-69
2021/08/27 07:24:51;;;;;;;8.40;3.38;;;14.20;99.90;;;;;;5111816;28;20326;-70
2021/08/27 07:27:19;;;;;;;7.05;2.53;;;14.20;99.90;;;;;;5111308;28;20043;-70
2021/08/27 07:29:46;;;;;;;8.80;3.50;;;14.20;99.90;;;;;;5111135;28;20051;-70
2021/08/27 07:32:13;;;;;;;10.68;3.60;;;14.20;99.90;;;;;;5111240;28;20097;-69
2021/08/27 07:34:42;;;;;;;8.93;3.30;;;14.30;99.90;;;;;;5111071;28;20043;-71
2021/08/27 07:37:10;;;;;;;9.40;3.92;;;14.30;99.90;;;;;;5111519;28;20116;-69
2021/08/27 07:39:37;;;;;;;8.18;2.95;;;14.30;99.90;;;;;;5110802;28;20100;-70
2021/08/27 07:42:06;;;;;;;8.65;3.05;;;14.30;99.90;;;;;;5111496;28;20532;-69
2021/08/27 07:44:34;;;;;;;8.52;2.70;;;14.30;99.90;;;;;;5111060;28;20108;-72
2021/08/27 07:47:02;;;;;;;7.10;2.78;;;14.10;99.90;;;;;;5111015;28;20047;-70
2021/08/27 07:49:29;;;;;;;11.02;3.55;;;14.10;99.90;;;;;;5110269;28;20051;-69
2021/08/27 07:51:57;;;;;;;7.53;3.30;;;14.20;99.90;;;;;;5111088;28;20247;-70
2021/08/27 07:54:24;;;;;;;11.98;3.40;;;14.10;99.90;;;;;;5110786;28;20414;-69
2021/08/27 07:56:51;;;;;;;8.35;3.58;;;14.20;99.90;;;;;;5111107;28;20109;-69
2021/08/27 07:59:18;;;;;;;13.23;3.78;;;14.20;99.90;;;;;;5110157;28;20048;-69
2021/08/27 08:01:47;;;;;;;9.70;3.42;;;14.20;99.90;;;;;;5110465;28;20083;-69
2021/08/27 08:04:14;;;;;;;10.15;4.07;;;14.00;99.90;;;;;;5110920;28;20752;-69
2021/08/27 08:06:41;;;;;;;11.18;3.35;;;14.10;99.90;;;;;;5110836;28;20096;-70
2021/08/27 08:09:09;;;;;;;8.70;3.17;;;14.10;99.90;;;;;;5110075;28;20536;-75
2021/08/27 08:11:36;;;;;;;10.48;3.30;;;14.20;99.90;;;;;;5109808;28;20051;-71
2021/08/27 08:14:03;;;;;;;6.93;3.03;;;14.40;99.90;;;;;;5110617;28;20047;-70
2021/08/27 08:16:31;;;;;;;11.73;3.42;;;14.50;99.90;;;;;;5110234;28;20101;-69
2021/08/27 08:18:59;;;;;;;8.60;3.00;;;14.60;99.90;;;;;;5110124;28;20063;-69
2021/08/27 08:21:26;;;;;;;5.80;2.78;;;14.70;99.90;;;;;;5110489;28;20507;-70
2021/08/27 08:23:55;;;;;;;9.00;3.00;;;14.60;99.90;;;;;;5110545;28;20077;-68
2021/08/27 08:26:23;;;;;;;10.40;2.80;;;14.60;99.90;;;;;;5110435;28;20124;-70
2021/08/27 08:28:51;;;;;;;5.38;2.70;;;14.60;99.90;;;;;;5109557;28;20448;-73
2021/08/27 08:31:20;;;;;;;10.05;3.28;;;14.80;99.90;;;;;;5110082;28;20090;-69
2021/08/27 08:33:48;;;;;;;13.63;3.53;;;14.70;99.90;;;;;;5110319;28;20079;-69
2021/08/27 08:36:17;;;;;;;7.68;2.90;;;14.80;99.90;;;;;;5110525;28;20120;-69
2021/08/27 08:38:44;;;;;;;8.52;3.35;;;14.70;99.90;;;;;;5110055;28;20047;-69
2021/08/27 08:41:12;;;;;;;6.32;2.90;;;14.70;99.90;;;;;;5110387;28;20043;-71
2021/08/27 08:43:39;;;;;;;7.00;2.65;;;14.80;99.90;;;;;;5110216;28;20062;-74
2021/08/27 08:46:06;;;;;;;7.10;2.20;;;15.00;99.90;;;;;;5109989;28;20048;-70
2021/08/27 08:48:34;;;;;;;8.05;2.50;;;15.00;99.90;;;;;;5109477;28;20503;-69
2021/08/27 08:51:05;;;;;;;9.68;2.78;;;15.10;99.90;;;;;;5110462;28;20344;-69
2021/08/27 08:53:35;;;;;;;9.25;2.65;;;15.10;99.90;;;;;;5110120;28;20134;-71
2021/08/27 08:56:03;;;;;;;7.43;2.60;;;15.10;99.90;;;;;;5109793;28;20276;-69
2021/08/27 08:58:31;;;;;;;9.20;2.85;;;15.10;99.90;;;;;;5109512;28;20052;-69
2021/08/27 09:00:58;;;;;;;6.10;2.17;;;15.10;99.90;;;;;;5110283;28;20052;-69
2021/08/27 09:03:26;;;;;;;7.57;1.60;;;15.10;99.90;;;;;;5110340;28;20138;-69
2021/08/27 09:05:53;;;;;;;6.35;2.22;;;14.90;99.90;;;;;;5109836;28;20051;-75
2021/08/27 09:08:33;;;;;;;7.72;2.10;;;15.20;99.90;;;;;;5109119;28;20047;-69
2021/08/27 09:11:02;;;;;;;4.05;1.80;;;15.10;99.90;;;;;;5110226;28;20538;-70
2021/08/27 09:13:32;;;;;;;8.32;2.17;;;15.10;99.90;;;;;;5110193;28;20047;-69
2021/08/27 09:16:07;;;;;;;5.47;2.33;;;15.30;99.90;;;;;;5109695;28;20501;-72
2021/08/27 09:18:38;;;;;;;7.13;2.10;;;15.50;99.90;;;;;;5108730;28;20400;-70
2021/08/27 09:21:35;;;;;;;5.00;2.00;;;15.80;99.90;;;;;;5110091;28;20396;-69
2021/08/27 09:24:14;;;;;;;8.93;1.80;;;16.40;99.90;;;;;;5105337;28;20415;-72
2021/08/27 09:26:43;;;;;;;5.18;1.60;;;16.80;99.90;;;;;;5114102;28;20461;-69
2021/08/27 09:29:10;;;;;;;7.05;1.65;;;17.10;99.90;;;;;;5112877;28;20081;-69
2021/08/27 09:31:39;;;;;;;5.30;1.88;;;17.60;99.90;;;;;;5114011;28;20051;-70
2021/08/27 09:34:07;;;;;;;6.53;1.80;;;18.40;99.90;;;;;;5113858;28;20465;-70
2021/08/27 09:36:35;;;;;;;5.70;1.60;;;18.50;99.90;;;;;;5113810;28;20112;-70
2021/08/27 09:39:06;;;;;;;5.75;1.63;;;18.40;99.90;;;;;;5112812;28;20100;-70
2021/08/27 09:41:35;;;;;;;6.25;1.80;;;18.10;99.90;;;;;;5113783;28;20055;-74
2021/08/27 09:44:03;;;;;;;6.38;1.75;;;17.90;99.90;;;;;;5113038;28;20051;-69
2021/08/27 09:46:36;;;;;;;3.85;1.63;;;17.60;99.90;;;;;;5113294;28;20058;-70
2021/08/27 09:49:04;;;;;;;5.82;1.55;;;17.40;99.90;;;;;;5113016;28;20051;-69
2021/08/27 09:51:46;;;;;;;5.20;1.30;;;17.30;99.90;;;;;;5113476;28;20081;-70
2021/08/27 09:54:22;;;;;;;5.75;1.73;;;17.30;99.90;;;;;;5113109;28;20051;-70
2021/08/27 09:56:53;;;;;;;;;;;17.20;99.90;;;;;;5113934;28;20052;-70
2021/08/27 09:59:38;;;;;;;9.55;2.40;;;16.60;99.90;;;;;;5113988;28;19924;-70
2021/08/27 10:02:07;;;;;;;3.42;1.50;;;16.70;99.90;;;;;;5114382;28;20043;-70
2021/08/27 10:04:35;;;;;;;6.57;2.05;;;16.90;99.90;;;;;;5113865;28;20142;-70
2021/08/27 10:07:02;;;;;;;4.88;1.83;;;16.90;99.90;;;;;;5112772;28;20556;-70
2021/08/27 10:09:53;;;;;;;4.88;1.70;;;17.00;99.90;;;;;;5112107;28;20388;-70
2021/08/27 10:12:22;;;;;;;5.38;1.50;;;17.10;99.90;;;;;;5092841;28;20576;-70
2021/08/27 10:14:50;;;;;;;7.50;1.75;;;17.10;99.90;;;;;;5112583;28;20052;-70
2021/08/27 10:17:17;;;;;;;4.40;1.67;;;17.10;99.90;;;;;;5112589;28;20052;-70
2021/08/27 10:19:44;;;;;;;3.08;1.50;;;17.00;99.90;;;;;;5112190;28;20448;-70
2021/08/27 10:22:11;;;;;;;2.88;1.40;;;17.00;99.90;;;;;;5112686;28;20048;-70
2021/08/27 10:24:39;;;;;;;4.07;1.90;;;17.00;99.90;;;;;;5112597;28;20048;-75
2021/08/27 10:27:09;;;;;;;6.38;1.80;;;17.10;99.90;;;;;;5112741;28;20052;-70
2021/08/27 10:29:47;;;;;;;3.85;1.58;;;17.10;99.90;;;;;;5111931;28;20051;-70
2021/08/27 10:32:14;;;;;;;7.78;2.00;;;17.20;99.90;;;;;;5112903;28;20047;-70
2021/08/27 10:34:42;;;;;;;4.47;1.65;;;17.00;99.90;;;;;;5111852;28;20047;-70
2021/08/27 10:37:10;;;;;;;3.33;1.48;;;17.20;99.90;;;;;;5112390;28;20055;-69
2021/08/27 10:39:46;;;;;;;5.80;2.08;;;17.10;99.90;;;;;;5112187;28;20144;-70
2021/08/27 10:42:49;;;;;;;7.95;1.83;;;17.10;99.90;;;;;;5112335;28;20171;-70
2021/08/27 10:45:47;;;;;;;7.68;1.42;;;17.20;99.90;;;;;;5029363;28;20049;-70
2021/08/27 10:48:15;;;;;;;5.95;1.80;;;17.30;99.90;;;;;;5028943;28;20093;-70
2021/08/27 10:50:44;;;;;;;9.05;1.83;;;17.40;99.90;;;;;;5085920;28;20051;-73
2021/08/27 10:53:29;;;;;;;4.75;1.48;;;17.30;99.90;;;;;;5112046;28;20056;-71
2021/08/27 10:55:57;;;;;;;6.63;1.88;;;17.20;99.90;;;;;;5111239;28;20510;-70
2021/08/27 10:58:44;;;;;;;6.90;1.45;;;17.30;99.90;;;;;;5111376;28;20108;-70
2021/08/27 11:01:27;;;;;;;4.38;1.50;;;17.40;99.90;;;;;;5111868;28;20055;-70
2021/08/27 11:04:01;;;;;;;3.47;1.95;;;17.60;99.90;;;;;;5112214;28;20097;-70
2021/08/27 11:06:28;;;;;;;9.90;1.90;;;17.20;99.90;;;;;;5112012;28;20500;-70
2021/08/27 11:09:14;;;;;;;8.43;1.65;;;17.30;99.90;;;;;;5111278;28;20079;-70
2021/08/27 11:11:41;;;;;;;3.47;1.63;;;17.30;99.90;;;;;;5111914;28;20052;-70
2021/08/27 11:14:15;;;;;;;4.57;1.73;;;17.50;99.90;;;;;;5111767;28;20491;-75
2021/08/27 11:16:43;;;;;;;6.22;1.50;;;17.10;99.90;;;;;;5111884;28;20093;-70
2021/08/27 11:19:25;;;;;;;5.80;1.52;;;17.20;99.90;;;;;;5110859;28;20089;-69
2021/08/27 11:21:56;;;;;;;8.07;1.42;;;17.30;99.90;;;;;;5111439;28;20081;-69
2021/08/27 11:24:26;;;;;;;4.10;1.38;;;18.20;99.90;;;;;;5111697;28;20086;-70
2021/08/27 11:27:00;;;;;;;3.95;1.75;;;18.80;99.90;;;;;;5111413;28;20051;-75
2021/08/27 11:29:28;;;;;;;5.28;1.25;;;20.40;99.90;;;;;;5110752;28;20508;-70
2021/08/27 11:31:56;;;;;;;4.55;1.52;;;21.20;99.90;;;;;;5111395;28;20047;-70
2021/08/27 11:34:25;;;;;;;4.93;1.30;;;21.10;99.90;;;;;;5111258;28;20277;-70
2021/08/27 11:36:53;;;;;;;3.28;1.02;;;20.80;99.90;;;;;;5111529;28;20104;-71
2021/08/27 11:39:22;;;;;;;4.05;1.40;;;21.00;99.90;;;;;;5110638;28;20517;-70
2021/08/27 11:41:49;;;;;;;4.90;1.20;;;20.90;99.90;;;;;;5110861;28;20055;-70
2021/08/27 11:44:20;;;;;;;3.83;1.33;;;20.10;99.90;;;;;;5111057;28;20104;-76
2021/08/27 11:46:50;;;;;;;4.47;1.40;;;19.90;99.90;;;;;;5110500;28;20052;-75
2021/08/27 11:49:26;;;;;;;4.13;1.42;;;19.40;99.90;;;;;;5110415;28;20487;-72
2021/08/27 11:52:10;;;;;;;3.88;1.52;;;19.20;99.90;;;;;;5111074;28;20114;-72
2021/08/27 11:54:37;;;;;;;4.95;1.83;;;18.80;99.90;;;;;;5111012;28;20043;-70
2021/08/27 11:57:13;;;;;;;3.08;1.40;;;18.50;99.90;;;;;;5110707;28;20105;-71
2021/08/27 11:59:41;;;;;;;4.93;1.65;;;18.30;99.90;;;;;;5110424;28;20052;-71
2021/08/27 12:02:16;;;;;;;6.35;2.10;;;18.30;99.90;;;;;;5110808;28;20108;-74
2021/08/27 12:04:45;;;;;;;2.75;1.30;;;18.80;99.90;;;;;;5110834;28;20124;-70
2021/08/27 12:07:14;;;;;;;5.80;1.40;;;19.70;99.90;;;;;;5110723;28;20112;-70
2021/08/27 12:09:42;;;;;;;3.72;1.40;;;20.60;99.90;;;;;;5109912;28;20052;-73
2021/08/27 12:12:31;;;;;;;3.33;1.38;;;21.20;99.90;;;;;;5110642;28;20052;-70
2021/08/27 12:14:58;;;;;;;5.53;1.30;;;21.30;99.90;;;;;;5111140;28;20063;-70
2021/08/27 12:17:26;;;;;;;4.90;1.40;;;20.60;99.90;;;;;;5110861;28;20043;-76
2021/08/27 12:19:57;;;;;;;2.67;0.95;;;20.30;99.90;;;;;;5110249;28;20047;-71
2021/08/27 12:22:27;;;;;;;4.05;1.30;;;19.90;99.90;;;;;;5110369;28;20128;-70
2021/08/27 12:25:02;;;;;;;2.50;1.10;;;19.50;99.90;;;;;;5110637;28;20048;-70
2021/08/27 12:27:29;;;;;;;2.42;1.17;;;18.60;99.90;;;;;;5110634;28;20062;-70
2021/08/27 12:30:10;;;;;;;2.58;1.20;;;18.50;99.90;;;;;;5109988;28;20052;-74
2021/08/27 12:32:38;;;;;;;2.42;1.00;;;18.20;99.90;;;;;;5110748;28;20048;-70
2021/08/27 12:35:08;;;;;;;3.17;1.33;;;18.50;99.90;;;;;;5110526;28;20112;-71
2021/08/27 12:37:36;;;;;;;3.92;0.80;;;18.90;99.90;;;;;;5109861;28;20564;-70
2021/08/27 12:40:08;;;;;;;3.33;1.60;;;19.60;99.90;;;;;;5110129;28;20058;-71
2021/08/27 12:42:35;;;;;;;3.42;1.17;;;19.40;99.90;;;;;;5110654;28;20048;-74
2021/08/27 12:45:05;;;;;;;1.63;0.90;;;19.40;99.90;;;;;;5110109;28;20052;-70
2021/08/27 12:47:35;;;;;;;2.70;0.80;;;19.00;99.90;;;;;;5110099;28;20048;-70
2021/08/27 12:50:06;;;;;;;3.17;1.05;;;19.20;99.90;;;;;;5110430;28;20104;-70
2021/08/27 12:52:35;;;;;;;4.78;1.10;;;19.10;99.90;;;;;;5110393;28;20098;-70
2021/08/27 12:55:02;;;;;;;1.90;0.88;;;19.20;99.90;;;;;;5110254;28;20075;-71
2021/08/27 12:57:29;;;;;;;4.72;1.42;;;19.20;99.90;;;;;;5109378;28;20102;-70
2021/08/27 12:59:59;;;;;;;3.30;1.15;;;19.30;99.90;;;;;;5109958;28;20047;-70